sensor_id;sensor_type;location;lat;lon;timestamp;P1;durP1;ratioP1;P2;durP2;ratioP2
7573;SDS011;3828;48.922;9.116;2023-07-13T00:00:10;0.50;;;0.50;;
7573;SDS011;3828;48.922;9.116;2023-07-13T00:02:40;0.40;;;0.40;;
7573;SDS011;3828;48.922;9.116;2023-07-13T00:05:08;0.40;;;0.40;;
7573;SDS011;3828;48.922;9.116;2023-07-13T00:07:36;0.50;;;0.50;;
7573;SDS011;3828;48.922;9.116;2023-07-13T00:10:03;0.57;;;0.57;;
7573;SDS011;3828;48.922;9.116;2023-07-13T00:12:33;0.60;;;0.60;;
7573;SDS011;3828;48.922;9.116;2023-07-13T00:15:01;0.50;;;0.50;;
7573;SDS011;3828;48.922;9.116;2023-07-13T00:17:30;0.60;;;0.60;;
7573;SDS011;3828;48.922;9.116;2023-07-13T00:19:57;0.67;;;0.67;;
7573;SDS011;3828;48.922;9.116;2023-07-13T00:22:24;0.50;;;0.50;;
7573;SDS011;3828;48.922;9.116;2023-07-13T00:24:53;0.70;;;0.70;;
7573;SDS011;3828;48.922;9.116;2023-07-13T00:27:21;0.50;;;0.50;;
7573;SDS011;3828;48.922;9.116;2023-07-13T00:29:49;0.60;;;0.60;;
7573;SDS011;3828;48.922;9.116;2023-07-13T00:32:16;0.57;;;0.57;;
7573;SDS011;3828;48.922;9.116;2023-07-13T00:34:43;0.60;;;0.60;;
7573;SDS011;3828;48.922;9.116;2023-07-13T00:37:10;0.60;;;0.60;;
7573;SDS011;3828;48.922;9.116;2023-07-13T00:39:37;0.63;;;0.63;;
7573;SDS011;3828;48.922;9.116;2023-07-13T00:42:06;0.57;;;0.57;;
7573;SDS011;3828;48.922;9.116;2023-07-13T00:44:33;0.70;;;0.70;;
7573;SDS011;3828;48.922;9.116;2023-07-13T00:47:00;0.60;;;0.60;;
7573;SDS011;3828;48.922;9.116;2023-07-13T00:49:27;0.70;;;0.70;;
7573;SDS011;3828;48.922;9.116;2023-07-13T00:51:58;0.60;;;0.60;;
7573;SDS011;3828;48.922;9.116;2023-07-13T00:54:29;0.60;;;0.60;;
7573;SDS011;3828;48.922;9.116;2023-07-13T00:56:59;0.60;;;0.60;;
7573;SDS011;3828;48.922;9.116;2023-07-13T00:59:30;0.60;;;0.60;;
7573;SDS011;3828;48.922;9.116;2023-07-13T01:01:57;0.60;;;0.60;;
7573;SDS011;3828;48.922;9.116;2023-07-13T01:04:24;0.60;;;0.60;;
7573;SDS011;3828;48.922;9.116;2023-07-13T01:06:51;0.60;;;0.60;;
7573;SDS011;3828;48.922;9.116;2023-07-13T01:09:19;0.60;;;0.60;;
7573;SDS011;3828;48.922;9.116;2023-07-13T01:11:46;0.53;;;0.53;;
7573;SDS011;3828;48.922;9.116;2023-07-13T01:14:14;0.60;;;0.60;;
7573;SDS011;3828;48.922;9.116;2023-07-13T01:16:45;0.60;;;0.60;;
7573;SDS011;3828;48.922;9.116;2023-07-13T01:19:16;0.60;;;0.60;;
7573;SDS011;3828;48.922;9.116;2023-07-13T01:21:56;0.80;;;0.80;;
7573;SDS011;3828;48.922;9.116;2023-07-13T01:24:23;0.50;;;0.50;;
7573;SDS011;3828;48.922;9.116;2023-07-13T01:26:50;0.77;;;0.77;;
7573;SDS011;3828;48.922;9.116;2023-07-13T01:29:17;0.60;;;0.60;;
7573;SDS011;3828;48.922;9.116;2023-07-13T01:31:45;0.70;;;0.70;;
7573;SDS011;3828;48.922;9.116;2023-07-13T01:34:12;0.60;;;0.60;;
7573;SDS011;3828;48.922;9.116;2023-07-13T01:36:39;0.80;;;0.80;;
7573;SDS011;3828;48.922;9.116;2023-07-13T01:39:07;0.60;;;0.60;;
7573;SDS011;3828;48.922;9.116;2023-07-13T01:41:34;0.77;;;0.77;;
7573;SDS011;3828;48.922;9.116;2023-07-13T01:44:01;0.60;;;0.60;;
7573;SDS011;3828;48.922;9.116;2023-07-13T01:46:28;0.80;;;0.80;;
7573;SDS011;3828;48.922;9.116;2023-07-13T01:48:55;0.60;;;0.60;;
7573;SDS011;3828;48.922;9.116;2023-07-13T01:51:22;0.60;;;0.60;;
7573;SDS011;3828;48.922;9.116;2023-07-13T01:53:49;0.60;;;0.60;;
7573;SDS011;3828;48.922;9.116;2023-07-13T01:56:17;0.70;;;0.70;;
7573;SDS011;3828;48.922;9.116;2023-07-13T01:58:44;0.60;;;0.60;;
7573;SDS011;3828;48.922;9.116;2023-07-13T02:01:11;0.60;;;0.60;;
7573;SDS011;3828;48.922;9.116;2023-07-13T02:03:38;0.60;;;0.60;;
7573;SDS011;3828;48.922;9.116;2023-07-13T02:06:06;0.70;;;0.70;;
7573;SDS011;3828;48.922;9.116;2023-07-13T02:08:32;0.60;;;0.60;;
7573;SDS011;3828;48.922;9.116;2023-07-13T02:11:00;0.70;;;0.70;;
7573;SDS011;3828;48.922;9.116;2023-07-13T02:13:30;0.50;;;0.50;;
7573;SDS011;3828;48.922;9.116;2023-07-13T02:15:57;0.60;;;0.60;;
7573;SDS011;3828;48.922;9.116;2023-07-13T02:18:24;0.63;;;0.63;;
7573;SDS011;3828;48.922;9.116;2023-07-13T02:20:51;0.60;;;0.60;;
7573;SDS011;3828;48.922;9.116;2023-07-13T02:23:18;0.70;;;0.70;;
7573;SDS011;3828;48.922;9.116;2023-07-13T02:25:46;0.60;;;0.60;;
7573;SDS011;3828;48.922;9.116;2023-07-13T02:28:13;0.70;;;0.70;;
7573;SDS011;3828;48.922;9.116;2023-07-13T02:30:41;0.60;;;0.60;;
7573;SDS011;3828;48.922;9.116;2023-07-13T02:33:08;0.70;;;0.70;;
7573;SDS011;3828;48.922;9.116;2023-07-13T02:35:35;0.60;;;0.60;;
7573;SDS011;3828;48.922;9.116;2023-07-13T02:38:02;0.77;;;0.77;;
7573;SDS011;3828;48.922;9.116;2023-07-13T02:40:29;0.60;;;0.60;;
7573;SDS011;3828;48.922;9.116;2023-07-13T02:42:58;0.73;;;0.73;;
7573;SDS011;3828;48.922;9.116;2023-07-13T02:45:24;0.77;;;0.77;;
7573;SDS011;3828;48.922;9.116;2023-07-13T02:47:53;0.50;;;0.50;;
7573;SDS011;3828;48.922;9.116;2023-07-13T02:50:20;0.60;;;0.60;;
7573;SDS011;3828;48.922;9.116;2023-07-13T02:52:47;0.70;;;0.70;;
7573;SDS011;3828;48.922;9.116;2023-07-13T02:55:14;0.70;;;0.70;;
7573;SDS011;3828;48.922;9.116;2023-07-13T02:57:41;0.60;;;0.60;;
7573;SDS011;3828;48.922;9.116;2023-07-13T03:00:09;0.60;;;0.60;;
7573;SDS011;3828;48.922;9.116;2023-07-13T03:02:36;0.80;;;0.80;;
7573;SDS011;3828;48.922;9.116;2023-07-13T03:05:06;0.50;;;0.50;;
7573;SDS011;3828;48.922;9.116;2023-07-13T03:07:37;0.87;;;0.87;;
7573;SDS011;3828;48.922;9.116;2023-07-13T03:10:05;0.70;;;0.70;;
7573;SDS011;3828;48.922;9.116;2023-07-13T03:12:32;0.60;;;0.60;;
7573;SDS011;3828;48.922;9.116;2023-07-13T03:14:59;0.67;;;0.67;;
7573;SDS011;3828;48.922;9.116;2023-07-13T03:17:26;0.50;;;0.50;;
7573;SDS011;3828;48.922;9.116;2023-07-13T03:19:53;0.60;;;0.60;;
7573;SDS011;3828;48.922;9.116;2023-07-13T03:22:21;0.60;;;0.60;;
7573;SDS011;3828;48.922;9.116;2023-07-13T03:24:48;0.60;;;0.60;;
7573;SDS011;3828;48.922;9.116;2023-07-13T03:27:17;0.60;;;0.60;;
7573;SDS011;3828;48.922;9.116;2023-07-13T03:29:44;0.80;;;0.80;;
7573;SDS011;3828;48.922;9.116;2023-07-13T03:32:11;0.60;;;0.60;;
7573;SDS011;3828;48.922;9.116;2023-07-13T03:34:38;0.90;;;0.90;;
7573;SDS011;3828;48.922;9.116;2023-07-13T03:37:05;0.60;;;0.60;;
7573;SDS011;3828;48.922;9.116;2023-07-13T03:39:35;0.60;;;0.60;;
7573;SDS011;3828;48.922;9.116;2023-07-13T03:42:02;0.60;;;0.60;;
7573;SDS011;3828;48.922;9.116;2023-07-13T03:44:29;0.60;;;0.60;;
7573;SDS011;3828;48.922;9.116;2023-07-13T03:46:56;0.60;;;0.60;;
7573;SDS011;3828;48.922;9.116;2023-07-13T03:49:23;0.60;;;0.60;;
7573;SDS011;3828;48.922;9.116;2023-07-13T03:51:50;0.60;;;0.60;;
7573;SDS011;3828;48.922;9.116;2023-07-13T03:54:16;0.60;;;0.60;;
7573;SDS011;3828;48.922;9.116;2023-07-13T03:56:45;0.60;;;0.60;;
7573;SDS011;3828;48.922;9.116;2023-07-13T03:59:12;0.70;;;0.70;;
7573;SDS011;3828;48.922;9.116;2023-07-13T04:01:39;0.60;;;0.60;;
7573;SDS011;3828;48.922;9.116;2023-07-13T04:04:05;0.70;;;0.70;;
7573;SDS011;3828;48.922;9.116;2023-07-13T04:06:32;0.60;;;0.60;;
7573;SDS011;3828;48.922;9.116;2023-07-13T04:09:00;0.70;;;0.70;;
7573;SDS011;3828;48.922;9.116;2023-07-13T04:11:30;0.63;;;0.63;;
7573;SDS011;3828;48.922;9.116;2023-07-13T04:13:59;0.60;;;0.60;;
7573;SDS011;3828;48.922;9.116;2023-07-13T04:16:26;0.60;;;0.60;;
7573;SDS011;3828;48.922;9.116;2023-07-13T04:18:53;0.60;;;0.60;;
7573;SDS011;3828;48.922;9.116;2023-07-13T04:21:24;0.80;;;0.80;;
7573;SDS011;3828;48.922;9.116;2023-07-13T04:23:52;0.60;;;0.60;;
7573;SDS011;3828;48.922;9.116;2023-07-13T04:26:19;0.70;;;0.70;;
7573;SDS011;3828;48.922;9.116;2023-07-13T04:28:47;0.60;;;0.60;;
7573;SDS011;3828;48.922;9.116;2023-07-13T04:31:16;0.73;;;0.73;;
7573;SDS011;3828;48.922;9.116;2023-07-13T04:33:43;0.60;;;0.60;;
7573;SDS011;3828;48.922;9.116;2023-07-13T04:36:10;0.80;;;0.80;;
7573;SDS011;3828;48.922;9.116;2023-07-13T04:38:37;0.60;;;0.60;;
7573;SDS011;3828;48.922;9.116;2023-07-13T04:41:05;0.70;;;0.70;;
7573;SDS011;3828;48.922;9.116;2023-07-13T04:43:33;0.50;;;0.50;;
7573;SDS011;3828;48.922;9.116;2023-07-13T04:46:03;0.70;;;0.70;;
7573;SDS011;3828;48.922;9.116;2023-07-13T04:48:32;0.60;;;0.60;;
7573;SDS011;3828;48.922;9.116;2023-07-13T04:50:59;0.63;;;0.63;;
7573;SDS011;3828;48.922;9.116;2023-07-13T04:53:27;0.60;;;0.60;;
7573;SDS011;3828;48.922;9.116;2023-07-13T04:55:54;0.50;;;0.50;;
7573;SDS011;3828;48.922;9.116;2023-07-13T04:58:21;0.60;;;0.60;;
7573;SDS011;3828;48.922;9.116;2023-07-13T05:00:48;0.60;;;0.60;;
7573;SDS011;3828;48.922;9.116;2023-07-13T05:03:15;0.60;;;0.60;;
7573;SDS011;3828;48.922;9.116;2023-07-13T05:05:53;0.60;;;0.60;;
7573;SDS011;3828;48.922;9.116;2023-07-13T05:08:21;0.70;;;0.70;;
7573;SDS011;3828;48.922;9.116;2023-07-13T05:10:47;0.70;;;0.70;;
7573;SDS011;3828;48.922;9.116;2023-07-13T05:13:14;0.70;;;0.70;;
7573;SDS011;3828;48.922;9.116;2023-07-13T05:15:41;0.50;;;0.50;;
7573;SDS011;3828;48.922;9.116;2023-07-13T05:18:08;0.70;;;0.70;;
7573;SDS011;3828;48.922;9.116;2023-07-13T05:20:35;0.70;;;0.70;;
7573;SDS011;3828;48.922;9.116;2023-07-13T05:23:03;0.63;;;0.63;;
7573;SDS011;3828;48.922;9.116;2023-07-13T05:25:30;0.50;;;0.50;;
7573;SDS011;3828;48.922;9.116;2023-07-13T05:27:58;0.87;;;0.87;;
7573;SDS011;3828;48.922;9.116;2023-07-13T05:30:25;0.60;;;0.60;;
7573;SDS011;3828;48.922;9.116;2023-07-13T05:32:52;0.60;;;0.60;;
7573;SDS011;3828;48.922;9.116;2023-07-13T05:35:19;0.60;;;0.60;;
7573;SDS011;3828;48.922;9.116;2023-07-13T05:37:46;0.70;;;0.70;;
7573;SDS011;3828;48.922;9.116;2023-07-13T05:40:14;0.60;;;0.60;;
7573;SDS011;3828;48.922;9.116;2023-07-13T05:42:41;0.60;;;0.60;;
7573;SDS011;3828;48.922;9.116;2023-07-13T05:45:08;0.50;;;0.50;;
7573;SDS011;3828;48.922;9.116;2023-07-13T05:47:35;0.60;;;0.60;;
7573;SDS011;3828;48.922;9.116;2023-07-13T05:50:02;0.60;;;0.60;;
7573;SDS011;3828;48.922;9.116;2023-07-13T05:52:30;0.40;;;0.40;;
7573;SDS011;3828;48.922;9.116;2023-07-13T05:54:57;0.60;;;0.60;;
7573;SDS011;3828;48.922;9.116;2023-07-13T05:57:25;0.73;;;0.73;;
7573;SDS011;3828;48.922;9.116;2023-07-13T05:59:53;0.60;;;0.60;;
7573;SDS011;3828;48.922;9.116;2023-07-13T06:02:20;0.70;;;0.70;;
7573;SDS011;3828;48.922;9.116;2023-07-13T06:04:47;0.60;;;0.60;;
7573;SDS011;3828;48.922;9.116;2023-07-13T06:07:14;0.60;;;0.60;;
7573;SDS011;3828;48.922;9.116;2023-07-13T06:09:41;0.60;;;0.60;;
7573;SDS011;3828;48.922;9.116;2023-07-13T06:12:08;0.60;;;0.60;;
7573;SDS011;3828;48.922;9.116;2023-07-13T06:14:36;0.60;;;0.60;;
7573;SDS011;3828;48.922;9.116;2023-07-13T06:17:03;0.50;;;0.50;;
7573;SDS011;3828;48.922;9.116;2023-07-13T06:19:31;0.60;;;0.60;;
7573;SDS011;3828;48.922;9.116;2023-07-13T06:21:58;0.50;;;0.50;;
7573;SDS011;3828;48.922;9.116;2023-07-13T06:24:25;0.50;;;0.50;;
7573;SDS011;3828;48.922;9.116;2023-07-13T06:26:52;0.40;;;0.40;;
7573;SDS011;3828;48.922;9.116;2023-07-13T06:29:19;0.50;;;0.50;;
7573;SDS011;3828;48.922;9.116;2023-07-13T06:31:47;0.50;;;0.50;;
7573;SDS011;3828;48.922;9.116;2023-07-13T06:34:14;0.70;;;0.70;;
7573;SDS011;3828;48.922;9.116;2023-07-13T06:36:41;0.50;;;0.50;;
7573;SDS011;3828;48.922;9.116;2023-07-13T06:39:08;0.70;;;0.70;;
7573;SDS011;3828;48.922;9.116;2023-07-13T06:41:35;0.60;;;0.60;;
7573;SDS011;3828;48.922;9.116;2023-07-13T06:44:04;0.60;;;0.60;;
7573;SDS011;3828;48.922;9.116;2023-07-13T06:46:31;0.57;;;0.57;;
7573;SDS011;3828;48.922;9.116;2023-07-13T06:48:59;0.60;;;0.60;;
7573;SDS011;3828;48.922;9.116;2023-07-13T06:51:26;0.50;;;0.50;;
7573;SDS011;3828;48.922;9.116;2023-07-13T06:53:54;0.60;;;0.60;;
7573;SDS011;3828;48.922;9.116;2023-07-13T06:56:21;0.60;;;0.60;;
7573;SDS011;3828;48.922;9.116;2023-07-13T06:58:48;0.50;;;0.50;;
7573;SDS011;3828;48.922;9.116;2023-07-13T07:01:15;0.50;;;0.50;;
7573;SDS011;3828;48.922;9.116;2023-07-13T07:03:42;0.50;;;0.50;;
7573;SDS011;3828;48.922;9.116;2023-07-13T07:06:13;0.33;;;0.33;;
7573;SDS011;3828;48.922;9.116;2023-07-13T07:08:42;0.70;;;0.70;;
7573;SDS011;3828;48.922;9.116;2023-07-13T07:11:11;0.50;;;0.50;;
7573;SDS011;3828;48.922;9.116;2023-07-13T07:13:39;0.60;;;0.60;;
7573;SDS011;3828;48.922;9.116;2023-07-13T07:16:06;0.50;;;0.50;;
7573;SDS011;3828;48.922;9.116;2023-07-13T07:18:33;0.70;;;0.70;;
7573;SDS011;3828;48.922;9.116;2023-07-13T07:21:00;0.50;;;0.50;;
7573;SDS011;3828;48.922;9.116;2023-07-13T07:23:29;0.50;;;0.50;;
7573;SDS011;3828;48.922;9.116;2023-07-13T07:25:55;0.40;;;0.40;;
7573;SDS011;3828;48.922;9.116;2023-07-13T07:28:23;0.40;;;0.40;;
7573;SDS011;3828;48.922;9.116;2023-07-13T07:30:52;0.40;;;0.40;;
7573;SDS011;3828;48.922;9.116;2023-07-13T07:33:20;0.50;;;0.50;;
7573;SDS011;3828;48.922;9.116;2023-07-13T07:35:47;0.57;;;0.57;;
7573;SDS011;3828;48.922;9.116;2023-07-13T07:38:14;0.60;;;0.60;;
7573;SDS011;3828;48.922;9.116;2023-07-13T07:40:43;0.50;;;0.50;;
7573;SDS011;3828;48.922;9.116;2023-07-13T07:43:10;0.50;;;0.50;;
7573;SDS011;3828;48.922;9.116;2023-07-13T07:45:38;0.40;;;0.40;;
7573;SDS011;3828;48.922;9.116;2023-07-13T07:48:06;0.37;;;0.37;;
7573;SDS011;3828;48.922;9.116;2023-07-13T07:50:34;0.50;;;0.50;;
7573;SDS011;3828;48.922;9.116;2023-07-13T07:53:01;0.43;;;0.43;;
7573;SDS011;3828;48.922;9.116;2023-07-13T07:55:32;0.43;;;0.43;;
7573;SDS011;3828;48.922;9.116;2023-07-13T07:58:00;0.50;;;0.50;;
7573;SDS011;3828;48.922;9.116;2023-07-13T08:00:28;0.40;;;0.40;;
7573;SDS011;3828;48.922;9.116;2023-07-13T08:02:56;0.30;;;0.30;;
7573;SDS011;3828;48.922;9.116;2023-07-13T08:05:23;0.50;;;0.50;;
7573;SDS011;3828;48.922;9.116;2023-07-13T08:07:51;0.40;;;0.40;;
7573;SDS011;3828;48.922;9.116;2023-07-13T08:10:18;0.40;;;0.40;;
7573;SDS011;3828;48.922;9.116;2023-07-13T08:12:45;0.40;;;0.40;;
7573;SDS011;3828;48.922;9.116;2023-07-13T08:15:14;0.30;;;0.30;;
7573;SDS011;3828;48.922;9.116;2023-07-13T08:17:41;0.40;;;0.40;;
7573;SDS011;3828;48.922;9.116;2023-07-13T08:20:09;0.43;;;0.43;;
7573;SDS011;3828;48.922;9.116;2023-07-13T08:22:36;0.47;;;0.47;;
7573;SDS011;3828;48.922;9.116;2023-07-13T08:25:03;0.40;;;0.40;;
7573;SDS011;3828;48.922;9.116;2023-07-13T08:27:30;0.50;;;0.50;;
7573;SDS011;3828;48.922;9.116;2023-07-13T08:29:57;0.50;;;0.50;;
7573;SDS011;3828;48.922;9.116;2023-07-13T08:32:26;0.57;;;0.57;;
7573;SDS011;3828;48.922;9.116;2023-07-13T08:34:53;0.40;;;0.40;;
7573;SDS011;3828;48.922;9.116;2023-07-13T08:37:19;0.40;;;0.40;;
7573;SDS011;3828;48.922;9.116;2023-07-13T08:39:48;0.40;;;0.40;;
7573;SDS011;3828;48.922;9.116;2023-07-13T08:42:18;0.33;;;0.33;;
7573;SDS011;3828;48.922;9.116;2023-07-13T08:44:57;0.40;;;0.40;;
7573;SDS011;3828;48.922;9.116;2023-07-13T08:47:35;0.50;;;0.50;;
7573;SDS011;3828;48.922;9.116;2023-07-13T08:50:08;0.30;;;0.30;;
7573;SDS011;3828;48.922;9.116;2023-07-13T08:52:38;0.40;;;0.40;;
7573;SDS011;3828;48.922;9.116;2023-07-13T08:55:09;0.50;;;0.50;;
7573;SDS011;3828;48.922;9.116;2023-07-13T08:57:39;0.33;;;0.33;;
7573;SDS011;3828;48.922;9.116;2023-07-13T09:00:09;0.50;;;0.50;;
7573;SDS011;3828;48.922;9.116;2023-07-13T09:02:42;0.30;;;0.30;;
7573;SDS011;3828;48.922;9.116;2023-07-13T09:05:13;0.40;;;0.40;;
7573;SDS011;3828;48.922;9.116;2023-07-13T09:10:36;0.40;;;0.40;;
7573;SDS011;3828;48.922;9.116;2023-07-13T09:13:14;0.40;;;0.40;;
7573;SDS011;3828;48.922;9.116;2023-07-13T09:15:49;0.43;;;0.43;;
7573;SDS011;3828;48.922;9.116;2023-07-13T09:18:18;0.40;;;0.40;;
7573;SDS011;3828;48.922;9.116;2023-07-13T09:20:50;0.30;;;0.30;;
7573;SDS011;3828;48.922;9.116;2023-07-13T09:23:21;0.60;;;0.60;;
7573;SDS011;3828;48.922;9.116;2023-07-13T09:25:50;0.30;;;0.30;;
7573;SDS011;3828;48.922;9.116;2023-07-13T09:28:22;0.50;;;0.50;;
7573;SDS011;3828;48.922;9.116;2023-07-13T09:30:52;0.30;;;0.30;;
7573;SDS011;3828;48.922;9.116;2023-07-13T09:33:24;0.30;;;0.30;;
7573;SDS011;3828;48.922;9.116;2023-07-13T09:35:54;0.30;;;0.30;;
7573;SDS011;3828;48.922;9.116;2023-07-13T09:38:22;0.30;;;0.30;;
7573;SDS011;3828;48.922;9.116;2023-07-13T09:40:58;0.30;;;0.30;;
7573;SDS011;3828;48.922;9.116;2023-07-13T09:43:34;0.30;;;0.30;;
7573;SDS011;3828;48.922;9.116;2023-07-13T09:46:01;0.30;;;0.30;;
7573;SDS011;3828;48.922;9.116;2023-07-13T09:48:34;0.67;;;0.67;;
7573;SDS011;3828;48.922;9.116;2023-07-13T09:51:07;0.33;;;0.33;;
7573;SDS011;3828;48.922;9.116;2023-07-13T09:53:41;0.50;;;0.50;;
7573;SDS011;3828;48.922;9.116;2023-07-13T09:56:18;0.50;;;0.50;;
7573;SDS011;3828;48.922;9.116;2023-07-13T09:58:46;0.20;;;0.20;;
7573;SDS011;3828;48.922;9.116;2023-07-13T10:01:13;0.23;;;0.23;;
7573;SDS011;3828;48.922;9.116;2023-07-13T10:03:51;0.30;;;0.30;;
7573;SDS011;3828;48.922;9.116;2023-07-13T10:06:19;0.40;;;0.40;;
7573;SDS011;3828;48.922;9.116;2023-07-13T10:08:48;0.20;;;0.20;;
7573;SDS011;3828;48.922;9.116;2023-07-13T10:11:18;0.30;;;0.30;;
7573;SDS011;3828;48.922;9.116;2023-07-13T10:13:49;0.20;;;0.20;;
7573;SDS011;3828;48.922;9.116;2023-07-13T10:16:18;0.23;;;0.23;;
7573;SDS011;3828;48.922;9.116;2023-07-13T10:18:48;0.30;;;0.30;;
7573;SDS011;3828;48.922;9.116;2023-07-13T10:21:17;0.30;;;0.30;;
7573;SDS011;3828;48.922;9.116;2023-07-13T10:23:47;0.30;;;0.30;;
7573;SDS011;3828;48.922;9.116;2023-07-13T10:26:17;0.30;;;0.30;;
7573;SDS011;3828;48.922;9.116;2023-07-13T10:28:50;0.30;;;0.30;;
7573;SDS011;3828;48.922;9.116;2023-07-13T10:31:20;0.30;;;0.30;;
7573;SDS011;3828;48.922;9.116;2023-07-13T10:33:49;0.30;;;0.30;;
7573;SDS011;3828;48.922;9.116;2023-07-13T10:36:19;0.30;;;0.30;;
7573;SDS011;3828;48.922;9.116;2023-07-13T10:38:52;0.27;;;0.27;;
7573;SDS011;3828;48.922;9.116;2023-07-13T10:41:21;0.50;;;0.50;;
7573;SDS011;3828;48.922;9.116;2023-07-13T10:43:52;0.20;;;0.20;;
7573;SDS011;3828;48.922;9.116;2023-07-13T10:46:22;0.20;;;0.20;;
7573;SDS011;3828;48.922;9.116;2023-07-13T10:48:54;0.10;;;0.10;;
7573;SDS011;3828;48.922;9.116;2023-07-13T10:51:24;0.30;;;0.30;;
7573;SDS011;3828;48.922;9.116;2023-07-13T10:56:40;0.30;;;0.30;;
7573;SDS011;3828;48.922;9.116;2023-07-13T10:59:10;0.40;;;0.40;;
7573;SDS011;3828;48.922;9.116;2023-07-13T11:01:46;0.27;;;0.27;;
7573;SDS011;3828;48.922;9.116;2023-07-13T11:04:20;0.40;;;0.40;;
7573;SDS011;3828;48.922;9.116;2023-07-13T11:06:50;0.20;;;0.20;;
7573;SDS011;3828;48.922;9.116;2023-07-13T11:09:30;0.30;;;0.30;;
7573;SDS011;3828;48.922;9.116;2023-07-13T11:12:06;0.20;;;0.20;;
7573;SDS011;3828;48.922;9.116;2023-07-13T11:14:41;0.20;;;0.20;;
7573;SDS011;3828;48.922;9.116;2023-07-13T11:17:24;0.30;;;0.30;;
7573;SDS011;3828;48.922;9.116;2023-07-13T11:20:10;0.13;;;0.13;;
7573;SDS011;3828;48.922;9.116;2023-07-13T11:23:17;0.27;;;0.27;;
7573;SDS011;3828;48.922;9.116;2023-07-13T11:26:02;0.23;;;0.23;;
7573;SDS011;3828;48.922;9.116;2023-07-13T11:28:30;0.20;;;0.20;;
7573;SDS011;3828;48.922;9.116;2023-07-13T11:31:02;0.13;;;0.13;;
7573;SDS011;3828;48.922;9.116;2023-07-13T11:33:49;0.20;;;0.20;;
7573;SDS011;3828;48.922;9.116;2023-07-13T11:36:27;0.30;;;0.30;;
7573;SDS011;3828;48.922;9.116;2023-07-13T11:39:05;0.23;;;0.23;;
7573;SDS011;3828;48.922;9.116;2023-07-13T11:41:43;0.20;;;0.20;;
7573;SDS011;3828;48.922;9.116;2023-07-13T11:44:12;0.20;;;0.20;;
7573;SDS011;3828;48.922;9.116;2023-07-13T11:46:44;0.30;;;0.30;;
7573;SDS011;3828;48.922;9.116;2023-07-13T11:49:15;0.30;;;0.30;;
7573;SDS011;3828;48.922;9.116;2023-07-13T11:51:44;0.20;;;0.20;;
7573;SDS011;3828;48.922;9.116;2023-07-13T11:54:17;0.40;;;0.40;;
7573;SDS011;3828;48.922;9.116;2023-07-13T11:56:51;0.10;;;0.10;;
7573;SDS011;3828;48.922;9.116;2023-07-13T11:59:18;0.30;;;0.30;;
7573;SDS011;3828;48.922;9.116;2023-07-13T12:01:47;0.20;;;0.20;;
7573;SDS011;3828;48.922;9.116;2023-07-13T12:04:19;0.30;;;0.30;;
7573;SDS011;3828;48.922;9.116;2023-07-13T12:06:56;0.30;;;0.30;;
7573;SDS011;3828;48.922;9.116;2023-07-13T12:09:26;0.20;;;0.20;;
7573;SDS011;3828;48.922;9.116;2023-07-13T12:11:56;0.30;;;0.30;;
7573;SDS011;3828;48.922;9.116;2023-07-13T12:14:25;0.30;;;0.30;;
7573;SDS011;3828;48.922;9.116;2023-07-13T12:16:52;0.10;;;0.10;;
7573;SDS011;3828;48.922;9.116;2023-07-13T12:19:21;0.23;;;0.23;;
7573;SDS011;3828;48.922;9.116;2023-07-13T12:21:50;0.30;;;0.30;;
7573;SDS011;3828;48.922;9.116;2023-07-13T12:24:21;0.30;;;0.30;;
7573;SDS011;3828;48.922;9.116;2023-07-13T12:26:52;0.30;;;0.30;;
7573;SDS011;3828;48.922;9.116;2023-07-13T12:29:19;0.20;;;0.20;;
7573;SDS011;3828;48.922;9.116;2023-07-13T12:31:47;0.20;;;0.20;;
7573;SDS011;3828;48.922;9.116;2023-07-13T12:34:18;0.40;;;0.40;;
7573;SDS011;3828;48.922;9.116;2023-07-13T12:36:46;0.30;;;0.30;;
7573;SDS011;3828;48.922;9.116;2023-07-13T12:39:17;0.20;;;0.20;;
7573;SDS011;3828;48.922;9.116;2023-07-13T12:41:47;0.30;;;0.30;;
7573;SDS011;3828;48.922;9.116;2023-07-13T12:44:16;0.47;;;0.47;;
7573;SDS011;3828;48.922;9.116;2023-07-13T12:46:52;0.20;;;0.20;;
7573;SDS011;3828;48.922;9.116;2023-07-13T12:49:23;0.53;;;0.53;;
7573;SDS011;3828;48.922;9.116;2023-07-13T12:51:55;0.20;;;0.20;;
7573;SDS011;3828;48.922;9.116;2023-07-13T12:54:24;0.30;;;0.30;;
7573;SDS011;3828;48.922;9.116;2023-07-13T12:56:53;0.30;;;0.30;;
7573;SDS011;3828;48.922;9.116;2023-07-13T12:59:23;0.50;;;0.50;;
7573;SDS011;3828;48.922;9.116;2023-07-13T13:01:55;0.30;;;0.30;;
7573;SDS011;3828;48.922;9.116;2023-07-13T13:04:22;0.20;;;0.20;;
7573;SDS011;3828;48.922;9.116;2023-07-13T13:06:59;0.43;;;0.43;;
7573;SDS011;3828;48.922;9.116;2023-07-13T13:09:27;0.30;;;0.30;;
7573;SDS011;3828;48.922;9.116;2023-07-13T13:11:56;0.20;;;0.20;;
7573;SDS011;3828;48.922;9.116;2023-07-13T13:14:23;0.23;;;0.23;;
7573;SDS011;3828;48.922;9.116;2023-07-13T13:16:50;0.30;;;0.30;;
7573;SDS011;3828;48.922;9.116;2023-07-13T13:19:19;0.30;;;0.30;;
7573;SDS011;3828;48.922;9.116;2023-07-13T13:21:48;0.20;;;0.20;;
7573;SDS011;3828;48.922;9.116;2023-07-13T13:24:19;0.30;;;0.30;;
7573;SDS011;3828;48.922;9.116;2023-07-13T13:26:48;0.30;;;0.30;;
7573;SDS011;3828;48.922;9.116;2023-07-13T13:29:17;0.20;;;0.20;;
7573;SDS011;3828;48.922;9.116;2023-07-13T13:31:45;0.20;;;0.20;;
7573;SDS011;3828;48.922;9.116;2023-07-13T13:34:13;0.30;;;0.30;;
7573;SDS011;3828;48.922;9.116;2023-07-13T13:36:42;0.50;;;0.50;;
7573;SDS011;3828;48.922;9.116;2023-07-13T13:39:19;0.30;;;0.30;;
7573;SDS011;3828;48.922;9.116;2023-07-13T13:41:48;0.40;;;0.40;;
7573;SDS011;3828;48.922;9.116;2023-07-13T13:44:17;0.20;;;0.20;;
7573;SDS011;3828;48.922;9.116;2023-07-13T13:46:45;0.40;;;0.40;;
7573;SDS011;3828;48.922;9.116;2023-07-13T13:49:14;0.70;;;0.70;;
7573;SDS011;3828;48.922;9.116;2023-07-13T13:51:42;0.10;;;0.10;;
7573;SDS011;3828;48.922;9.116;2023-07-13T13:54:10;0.60;;;0.60;;
7573;SDS011;3828;48.922;9.116;2023-07-13T13:56:39;0.20;;;0.20;;
7573;SDS011;3828;48.922;9.116;2023-07-13T13:59:06;0.20;;;0.20;;
7573;SDS011;3828;48.922;9.116;2023-07-13T14:01:35;0.30;;;0.30;;
7573;SDS011;3828;48.922;9.116;2023-07-13T14:04:05;0.70;;;0.70;;
7573;SDS011;3828;48.922;9.116;2023-07-13T14:06:33;0.27;;;0.27;;
7573;SDS011;3828;48.922;9.116;2023-07-13T14:09:00;0.70;;;0.70;;
7573;SDS011;3828;48.922;9.116;2023-07-13T14:11:29;0.10;;;0.10;;
7573;SDS011;3828;48.922;9.116;2023-07-13T14:13:58;0.30;;;0.30;;
7573;SDS011;3828;48.922;9.116;2023-07-13T14:16:29;0.30;;;0.30;;
7573;SDS011;3828;48.922;9.116;2023-07-13T14:19:00;0.43;;;0.43;;
7573;SDS011;3828;48.922;9.116;2023-07-13T14:21:28;0.20;;;0.20;;
7573;SDS011;3828;48.922;9.116;2023-07-13T14:23:56;0.60;;;0.60;;
7573;SDS011;3828;48.922;9.116;2023-07-13T14:26:24;0.30;;;0.30;;
7573;SDS011;3828;48.922;9.116;2023-07-13T14:28:53;0.30;;;0.30;;
7573;SDS011;3828;48.922;9.116;2023-07-13T14:31:21;0.20;;;0.20;;
7573;SDS011;3828;48.922;9.116;2023-07-13T14:33:49;0.37;;;0.37;;
7573;SDS011;3828;48.922;9.116;2023-07-13T14:36:23;0.20;;;0.20;;
7573;SDS011;3828;48.922;9.116;2023-07-13T14:38:54;0.33;;;0.33;;
7573;SDS011;3828;48.922;9.116;2023-07-13T14:41:23;0.50;;;0.50;;
7573;SDS011;3828;48.922;9.116;2023-07-13T14:43:50;0.20;;;0.20;;
7573;SDS011;3828;48.922;9.116;2023-07-13T14:46:23;0.30;;;0.30;;
7573;SDS011;3828;48.922;9.116;2023-07-13T14:48:54;0.20;;;0.20;;
7573;SDS011;3828;48.922;9.116;2023-07-13T14:51:30;0.27;;;0.27;;
7573;SDS011;3828;48.922;9.116;2023-07-13T14:54:01;0.63;;;0.63;;
7573;SDS011;3828;48.922;9.116;2023-07-13T14:56:29;0.27;;;0.27;;
7573;SDS011;3828;48.922;9.116;2023-07-13T14:58:56;0.67;;;0.67;;
7573;SDS011;3828;48.922;9.116;2023-07-13T15:01:24;1.10;;;1.10;;
7573;SDS011;3828;48.922;9.116;2023-07-13T15:03:51;0.30;;;0.30;;
7573;SDS011;3828;48.922;9.116;2023-07-13T15:06:19;0.40;;;0.40;;
7573;SDS011;3828;48.922;9.116;2023-07-13T15:08:47;0.50;;;0.50;;
7573;SDS011;3828;48.922;9.116;2023-07-13T15:11:14;0.30;;;0.30;;
7573;SDS011;3828;48.922;9.116;2023-07-13T15:13:43;0.50;;;0.50;;
7573;SDS011;3828;48.922;9.116;2023-07-13T15:16:13;0.40;;;0.40;;
7573;SDS011;3828;48.922;9.116;2023-07-13T15:18:43;0.33;;;0.33;;
7573;SDS011;3828;48.922;9.116;2023-07-13T15:21:19;0.33;;;0.33;;
7573;SDS011;3828;48.922;9.116;2023-07-13T15:23:49;0.30;;;0.30;;
7573;SDS011;3828;48.922;9.116;2023-07-13T15:26:17;0.40;;;0.40;;
7573;SDS011;3828;48.922;9.116;2023-07-13T15:28:46;0.30;;;0.30;;
7573;SDS011;3828;48.922;9.116;2023-07-13T15:31:20;0.30;;;0.30;;